createdAt,value
2023-05-07T00:01:12.967Z,16.83
2023-05-07T00:03:40.834Z,17.40
2023-05-07T00:06:08.957Z,15.40
2023-05-07T00:08:36.687Z,15.13
2023-05-07T00:11:04.771Z,14.97
2023-05-07T00:13:36.291Z,15.63
2023-05-07T00:16:05.819Z,16.17
2023-05-07T00:18:33.545Z,16.47
2023-05-07T00:21:01.278Z,16.07
2023-05-07T00:23:29.210Z,15.87
2023-05-07T00:25:56.935Z,15.77
2023-05-07T00:28:24.614Z,16.23
2023-05-07T00:30:52.265Z,15.47
2023-05-07T00:33:21.679Z,14.77
2023-05-07T00:35:49.511Z,14.40
2023-05-07T00:38:17.359Z,15.50
2023-05-07T00:40:45.045Z,15.53
2023-05-07T00:43:13.670Z,16.07
2023-05-07T00:45:41.890Z,17.30
2023-05-07T00:48:09.749Z,17.43
2023-05-07T00:50:38.758Z,15.63
2023-05-07T00:53:06.563Z,16.30
2023-05-07T00:55:35.049Z,17.50
2023-05-07T00:58:02.729Z,17.40
2023-05-07T01:00:30.540Z,17.67
2023-05-07T01:02:58.556Z,18.97
2023-05-07T01:05:27.984Z,18.77
2023-05-07T01:07:58.789Z,19.63
2023-05-07T01:10:26.652Z,19.70
2023-05-07T01:12:54.722Z,19.00
2023-05-07T01:15:22.515Z,19.23
2023-05-07T01:17:50.473Z,19.37
2023-05-07T01:20:18.958Z,20.63
2023-05-07T01:22:47.981Z,20.73
2023-05-07T01:25:17.268Z,19.90
2023-05-07T01:27:45.013Z,21.33
2023-05-07T01:30:13.989Z,20.03
2023-05-07T01:32:44.823Z,20.97
2023-05-07T01:35:14.560Z,21.90
2023-05-07T01:37:42.399Z,20.13
2023-05-07T01:40:12.534Z,23.40
2023-05-07T01:42:40.513Z,21.10
2023-05-07T01:45:09.155Z,22.30
2023-05-07T01:47:38.579Z,21.33
2023-05-07T01:50:09.679Z,23.00
2023-05-07T01:52:38.585Z,22.83
2023-05-07T01:55:07.810Z,22.73
2023-05-07T01:57:36.913Z,22.73
2023-05-07T02:00:07.259Z,23.37
2023-05-07T02:02:35.132Z,22.97
2023-05-07T02:05:04.988Z,23.33
2023-05-07T02:07:32.679Z,22.97
2023-05-07T02:10:00.340Z,23.90
2023-05-07T02:12:27.981Z,22.47
2023-05-07T02:14:57.011Z,24.07
2023-05-07T02:17:24.811Z,24.93
2023-05-07T02:19:52.520Z,22.30
2023-05-07T02:22:20.244Z,23.80
2023-05-07T02:24:47.951Z,24.63
2023-05-07T02:27:15.676Z,23.57
2023-05-07T02:29:43.340Z,23.20
2023-05-07T02:32:12.610Z,23.93
2023-05-07T02:34:40.466Z,23.03
2023-05-07T02:37:08.168Z,24.57
2023-05-07T02:39:35.893Z,23.27
2023-05-07T02:42:03.696Z,22.93
2023-05-07T02:44:32.449Z,25.23
2023-05-07T02:47:00.192Z,19.83
2023-05-07T02:49:29.198Z,24.50
2023-05-07T02:51:56.844Z,24.97
2023-05-07T02:54:24.582Z,24.30
2023-05-07T02:56:52.234Z,24.93
2023-05-07T02:59:19.993Z,25.20
2023-05-07T03:01:47.851Z,25.77
2023-05-07T03:04:15.673Z,24.77
2023-05-07T03:06:44.831Z,24.53
2023-05-07T03:09:12.616Z,26.10
2023-05-07T03:11:40.382Z,26.83
2023-05-07T03:14:08.058Z,27.73
2023-05-07T03:16:35.787Z,27.53
2023-05-07T03:19:03.614Z,27.87
2023-05-07T03:21:34.717Z,28.20
2023-05-07T03:24:03.735Z,28.90
2023-05-07T03:26:31.448Z,28.77
2023-05-07T03:28:59.175Z,27.07
2023-05-07T03:31:27.045Z,30.00
2023-05-07T03:33:56.285Z,29.20
2023-05-07T03:36:24.685Z,29.40
2023-05-07T03:38:52.338Z,29.83
2023-05-07T03:41:21.500Z,30.57
2023-05-07T03:43:49.147Z,30.27
2023-05-07T03:46:16.917Z,30.10
2023-05-07T03:48:44.614Z,30.93
2023-05-07T03:51:12.391Z,31.43
2023-05-07T03:53:40.068Z,26.30
2023-05-07T03:56:07.800Z,26.60
2023-05-07T03:58:36.894Z,31.23
2023-05-07T04:01:05.012Z,32.07
2023-05-07T04:03:32.719Z,30.53
2023-05-07T04:06:00.395Z,32.83
2023-05-07T04:08:28.123Z,32.37
2023-05-07T04:10:58.947Z,33.40
2023-05-07T04:13:26.794Z,33.07
2023-05-07T04:15:56.659Z,33.23
2023-05-07T04:18:24.334Z,31.63
2023-05-07T04:20:51.995Z,32.50
2023-05-07T04:23:19.965Z,34.70
2023-05-07T04:25:47.702Z,34.57
2023-05-07T04:28:15.357Z,31.53
2023-05-07T04:30:43.079Z,33.40
2023-05-07T04:33:12.620Z,32.40
2023-05-07T04:35:40.607Z,33.97
2023-05-07T04:38:08.306Z,31.67
2023-05-07T04:40:37.756Z,31.23
2023-05-07T04:43:05.585Z,34.17
2023-05-07T04:45:34.227Z,34.13
2023-05-07T04:48:02.149Z,33.87
2023-05-07T04:50:31.514Z,31.43
2023-05-07T04:52:59.216Z,34.20
2023-05-07T04:55:26.927Z,34.27
2023-05-07T04:57:55.316Z,33.80
2023-05-07T05:00:23.987Z,33.93
2023-05-07T05:02:51.846Z,29.43
2023-05-07T05:05:19.680Z,31.53
2023-05-07T05:07:48.846Z,33.07
2023-05-07T05:10:17.247Z,32.07
2023-05-07T05:12:45.265Z,32.53
2023-05-07T05:15:13.605Z,33.60
2023-05-07T05:17:41.720Z,32.87
2023-05-07T05:20:11.991Z,33.00
2023-05-07T05:22:39.798Z,31.20
2023-05-07T05:25:09.533Z,33.23
2023-05-07T05:27:37.291Z,30.07
2023-05-07T05:30:06.366Z,30.03
2023-05-07T05:32:34.772Z,28.80
2023-05-07T05:35:02.837Z,30.70
2023-05-07T05:37:31.238Z,31.37
2023-05-07T05:39:59.425Z,31.47
2023-05-07T05:42:28.749Z,28.83
2023-05-07T05:44:56.832Z,29.67
2023-05-07T05:47:24.967Z,31.17
2023-05-07T05:49:52.751Z,31.03
2023-05-07T05:52:20.861Z,30.40
2023-05-07T05:54:48.673Z,31.50
2023-05-07T05:57:16.344Z,32.50
2023-05-07T05:59:46.211Z,32.90
2023-05-07T06:02:13.982Z,30.20
2023-05-07T06:04:41.968Z,31.00
2023-05-07T06:07:09.701Z,30.57
2023-05-07T06:09:37.393Z,28.40
2023-05-07T06:12:05.289Z,30.27
2023-05-07T06:14:33.169Z,31.00
2023-05-07T06:17:02.263Z,30.77
2023-05-07T06:19:30.037Z,29.93
2023-05-07T06:21:58.134Z,31.00
2023-05-07T06:24:26.292Z,32.13
2023-05-07T06:26:54.025Z,32.73
2023-05-07T06:29:21.759Z,32.33
2023-05-07T06:31:49.468Z,29.47
2023-05-07T06:34:18.482Z,30.20
2023-05-07T06:36:46.166Z,30.87
2023-05-07T06:39:13.963Z,32.13
2023-05-07T06:41:41.656Z,30.87
2023-05-07T06:44:09.828Z,29.27
2023-05-07T06:46:37.773Z,30.30
2023-05-07T06:49:05.965Z,30.53
2023-05-07T06:51:35.427Z,29.80
2023-05-07T06:54:03.198Z,29.50
2023-05-07T06:56:30.860Z,31.37
2023-05-07T06:58:58.577Z,29.53
2023-05-07T07:01:26.255Z,28.23
2023-05-07T07:03:53.942Z,28.23
2023-05-07T07:06:21.685Z,28.27
2023-05-07T07:08:50.919Z,29.07
2023-05-07T07:11:18.978Z,30.43
2023-05-07T07:13:46.626Z,30.63
2023-05-07T07:16:14.356Z,29.50
2023-05-07T07:18:42.096Z,28.63
2023-05-07T07:21:09.777Z,28.70
2023-05-07T07:23:37.420Z,27.23
2023-05-07T07:26:07.056Z,28.87
2023-05-07T07:28:35.204Z,27.67
2023-05-07T07:31:02.940Z,26.93
2023-05-07T07:33:30.646Z,28.27
2023-05-07T07:35:58.353Z,29.77
2023-05-07T07:38:26.118Z,27.33
2023-05-07T07:40:53.763Z,27.53
2023-05-07T07:43:22.807Z,28.10
2023-05-07T07:45:50.724Z,27.70
2023-05-07T07:48:18.448Z,29.20
2023-05-07T07:50:46.554Z,28.00
2023-05-07T07:53:14.381Z,27.57
2023-05-07T07:55:42.290Z,27.87
2023-05-07T07:58:10.428Z,28.37
2023-05-07T08:00:39.567Z,27.97
2023-05-07T08:03:08.443Z,28.60
2023-05-07T08:05:36.363Z,27.80
2023-05-07T08:08:04.133Z,28.90
2023-05-07T08:10:35.512Z,28.03
2023-05-07T08:13:04.977Z,28.67
2023-05-07T08:15:32.923Z,28.03
2023-05-07T08:18:03.046Z,28.67
2023-05-07T08:20:31.108Z,27.53
2023-05-07T08:22:58.895Z,29.50
2023-05-07T08:25:26.604Z,27.90
2023-05-07T08:27:54.282Z,29.53
2023-05-07T08:30:22.220Z,24.77
2023-05-07T08:32:49.957Z,26.80
2023-05-07T08:35:19.086Z,28.13
2023-05-07T08:37:46.805Z,26.90
2023-05-07T08:40:14.872Z,26.83
2023-05-07T08:42:43.355Z,24.70
2023-05-07T08:45:11.977Z,26.30
2023-05-07T08:47:45.876Z,24.93
2023-05-07T08:50:13.975Z,28.03
2023-05-07T08:52:43.205Z,25.77
2023-05-07T08:55:12.073Z,27.63
2023-05-07T08:57:40.335Z,27.37
2023-05-07T09:00:09.224Z,27.70
2023-05-07T09:02:37.930Z,26.63
2023-05-07T09:05:06.452Z,26.63
2023-05-07T09:07:34.516Z,27.77
2023-05-07T09:10:05.138Z,26.00
2023-05-07T09:12:32.986Z,26.53
2023-05-07T09:15:01.341Z,25.97
2023-05-07T09:17:29.121Z,26.27
2023-05-07T09:19:56.799Z,27.03
2023-05-07T09:22:24.462Z,25.53
2023-05-07T09:24:52.681Z,27.37
2023-05-07T09:27:21.739Z,23.83
2023-05-07T09:29:49.419Z,25.90
2023-05-07T09:32:17.307Z,25.23
2023-05-07T09:34:44.985Z,24.23
2023-05-07T09:37:14.570Z,26.73
2023-05-07T09:39:42.763Z,25.43
2023-05-07T09:42:10.612Z,24.07
2023-05-07T09:44:40.314Z,25.50
2023-05-07T09:47:08.554Z,23.83
2023-05-07T09:49:37.672Z,26.37
2023-05-07T09:52:07.433Z,24.93
2023-05-07T09:54:35.378Z,21.63
2023-05-07T09:57:04.570Z,24.27
2023-05-07T09:59:33.568Z,22.67
2023-05-07T10:02:05.092Z,24.03
2023-05-07T10:04:33.595Z,25.10
2023-05-07T10:07:01.887Z,24.83
2023-05-07T10:09:30.171Z,24.47
2023-05-07T10:11:58.553Z,24.97
2023-05-07T10:14:26.662Z,24.60
2023-05-07T10:16:54.812Z,23.53
2023-05-07T10:19:24.224Z,24.67
2023-05-07T10:21:57.873Z,23.40
2023-05-07T10:24:28.372Z,24.87
2023-05-07T10:26:57.642Z,22.17
2023-05-07T10:29:33.208Z,22.90
2023-05-07T10:32:11.419Z,23.07
2023-05-07T10:34:43.737Z,22.40
2023-05-07T10:37:12.014Z,22.37
2023-05-07T10:39:39.970Z,21.93
2023-05-07T10:42:11.208Z,23.60
2023-05-07T10:44:39.025Z,22.97
2023-05-07T10:47:10.054Z,22.80
2023-05-07T10:49:40.417Z,24.37
2023-05-07T10:52:16.868Z,23.67
2023-05-07T10:54:45.477Z,23.40
2023-05-07T10:57:36.591Z,24.17
2023-05-07T11:00:04.893Z,25.07
2023-05-07T11:03:07.814Z,23.50
2023-05-07T11:05:38.737Z,22.90
2023-05-07T11:08:07.143Z,25.03
2023-05-07T11:10:51.808Z,23.40
2023-05-07T11:13:20.911Z,23.47
2023-05-07T11:15:49.592Z,23.07
2023-05-07T11:18:18.551Z,20.67
2023-05-07T11:20:55.673Z,24.03
2023-05-07T11:23:58.907Z,24.23
2023-05-07T11:26:27.340Z,21.73
2023-05-07T11:28:55.692Z,21.00
2023-05-07T11:31:25.464Z,20.67
2023-05-07T11:33:54.398Z,21.83
2023-05-07T11:36:24.835Z,20.80
2023-05-07T11:38:52.623Z,19.33
2023-05-07T11:41:22.883Z,19.60
2023-05-07T11:44:00.990Z,19.50
2023-05-07T11:46:30.391Z,19.73
2023-05-07T11:48:58.560Z,19.47
2023-05-07T11:51:30.964Z,20.50
2023-05-07T11:53:58.697Z,19.50
2023-05-07T11:56:26.450Z,20.07
2023-05-07T11:58:54.163Z,20.47
2023-05-07T12:01:21.876Z,20.00
2023-05-07T12:03:49.664Z,20.77
2023-05-07T12:06:18.235Z,19.40
2023-05-07T12:08:48.458Z,21.07
2023-05-07T12:11:18.782Z,19.17
2023-05-07T12:13:46.776Z,20.77
2023-05-07T12:16:14.761Z,20.47
2023-05-07T12:18:42.690Z,19.70
2023-05-07T12:21:10.953Z,19.83
2023-05-07T12:23:39.690Z,20.47
2023-05-07T12:26:09.197Z,19.90
2023-05-07T12:28:41.053Z,17.37
2023-05-07T12:31:09.352Z,19.67
2023-05-07T12:33:37.702Z,18.77
2023-05-07T12:36:08.894Z,16.23
2023-05-07T12:38:37.940Z,18.87
2023-05-07T12:41:06.278Z,16.07
2023-05-07T12:43:35.558Z,19.37
2023-05-07T12:46:06.673Z,18.10
2023-05-07T12:48:35.232Z,18.23
2023-05-07T12:51:03.890Z,18.07
2023-05-07T12:53:32.401Z,18.10
2023-05-07T12:56:01.740Z,18.73
2023-05-07T12:58:31.097Z,17.97
2023-05-07T13:01:01.603Z,19.07
2023-05-07T13:03:30.739Z,17.33
2023-05-07T13:06:00.662Z,16.07
2023-05-07T13:08:30.688Z,16.43
2023-05-07T13:10:59.466Z,15.73
2023-05-07T13:13:28.433Z,15.23
2023-05-07T13:15:58.054Z,13.87
2023-05-07T13:18:28.185Z,15.53
2023-05-07T13:20:56.112Z,14.87
2023-05-07T13:23:24.355Z,15.13
2023-05-07T13:25:53.621Z,16.93
2023-05-07T13:28:22.122Z,16.33
2023-05-07T13:30:49.942Z,16.53
2023-05-07T13:33:17.952Z,15.17
2023-05-07T13:35:46.988Z,16.50
2023-05-07T13:38:16.864Z,15.60
2023-05-07T13:40:44.643Z,13.53
2023-05-07T13:43:12.574Z,15.70
2023-05-07T13:45:40.289Z,14.77
2023-05-07T13:48:08.013Z,14.57
2023-05-07T13:50:36.220Z,14.90
2023-05-07T13:53:05.227Z,13.80
2023-05-07T13:55:32.934Z,14.27
2023-05-07T13:58:01.740Z,12.80
2023-05-07T14:00:30.423Z,13.80
2023-05-07T14:02:58.796Z,14.60
2023-05-07T14:05:27.669Z,13.60
2023-05-07T14:07:55.496Z,14.70
2023-05-07T14:10:24.593Z,14.80
2023-05-07T14:12:53.662Z,13.73
2023-05-07T14:15:21.486Z,13.60
2023-05-07T14:17:49.146Z,12.80
2023-05-07T14:20:16.914Z,12.53
2023-05-07T14:22:44.558Z,12.57
2023-05-07T14:25:12.222Z,13.70
2023-05-07T14:27:41.289Z,12.57
2023-05-07T14:30:10.113Z,13.53
2023-05-07T14:32:38.687Z,11.90
2023-05-07T14:35:06.922Z,13.33
2023-05-07T14:37:34.587Z,12.67
2023-05-07T14:40:02.458Z,12.10
2023-05-07T14:42:30.218Z,12.70
2023-05-07T14:44:59.290Z,12.30
2023-05-07T14:47:27.178Z,12.77
2023-05-07T14:49:55.465Z,12.43
2023-05-07T14:52:23.134Z,12.10
2023-05-07T14:54:50.934Z,12.47
2023-05-07T14:57:19.504Z,11.70
2023-05-07T14:59:47.922Z,12.53
2023-05-07T15:02:20.912Z,11.43
2023-05-07T15:04:49.627Z,12.07
2023-05-07T15:07:18.418Z,11.20
2023-05-07T15:09:46.843Z,10.27
2023-05-07T15:12:14.891Z,11.40
2023-05-07T15:14:43.213Z,10.50
2023-05-07T15:17:10.993Z,11.60
2023-05-07T15:19:40.401Z,11.50
2023-05-07T15:22:08.203Z,11.60
2023-05-07T15:24:36.246Z,11.20
2023-05-07T15:27:04.692Z,11.80
2023-05-07T15:29:32.379Z,11.33
2023-05-07T15:32:00.234Z,11.10
2023-05-07T15:34:28.460Z,10.70
2023-05-07T15:36:58.720Z,10.70
2023-05-07T15:39:26.364Z,10.50
2023-05-07T15:41:54.084Z,10.50
2023-05-07T15:44:22.022Z,10.37
2023-05-07T15:46:49.724Z,10.10
2023-05-07T15:49:17.382Z,10.33
2023-05-07T15:51:45.077Z,9.90
2023-05-07T15:54:14.163Z,9.87
2023-05-07T15:56:41.818Z,10.10
2023-05-07T15:59:10.171Z,10.27
2023-05-07T16:01:37.904Z,10.30
2023-05-07T16:04:05.956Z,9.93
2023-05-07T16:06:33.702Z,9.80
2023-05-07T16:09:01.421Z,10.80
2023-05-07T16:11:31.381Z,9.60
2023-05-07T16:14:00.824Z,10.37
2023-05-07T16:16:30.126Z,10.27
2023-05-07T16:18:58.025Z,9.13
2023-05-07T16:21:25.737Z,10.17
2023-05-07T16:23:53.403Z,9.57
2023-05-07T16:26:21.208Z,9.23
2023-05-07T16:28:51.707Z,10.00
2023-05-07T16:31:19.755Z,9.47
2023-05-07T16:33:47.492Z,9.77
2023-05-07T16:36:15.235Z,10.17
2023-05-07T16:38:42.901Z,9.57
2023-05-07T16:41:11.602Z,10.43
2023-05-07T16:43:39.329Z,10.87
2023-05-07T16:46:08.427Z,8.93
2023-05-07T16:48:36.227Z,9.83
2023-05-07T16:51:03.924Z,8.60
2023-05-07T16:53:31.644Z,9.23
2023-05-07T16:55:59.375Z,9.60
2023-05-07T16:58:28.110Z,8.93
2023-05-07T17:00:55.909Z,10.07
2023-05-07T17:03:25.102Z,9.33
2023-05-07T17:05:53.304Z,9.30
2023-05-07T17:08:20.970Z,10.67
2023-05-07T17:10:48.640Z,9.27
2023-05-07T17:13:16.379Z,10.27
2023-05-07T17:15:46.504Z,9.80
2023-05-07T17:18:14.491Z,11.10
2023-05-07T17:20:43.541Z,9.60
2023-05-07T17:23:11.203Z,9.90
2023-05-07T17:25:39.149Z,9.30
2023-05-07T17:28:06.877Z,8.87
2023-05-07T17:30:34.614Z,9.10
2023-05-07T17:33:16.762Z,9.87
2023-05-07T17:35:46.268Z,9.83
2023-05-07T17:38:13.976Z,9.60
2023-05-07T17:40:41.677Z,9.87
2023-05-07T17:43:09.340Z,9.73
2023-05-07T17:45:37.154Z,10.83
2023-05-07T17:48:05.734Z,10.33
2023-05-07T17:50:33.591Z,9.73
2023-05-07T17:53:02.601Z,11.10
2023-05-07T17:55:33.521Z,11.27
2023-05-07T17:58:03.263Z,10.33
2023-05-07T18:00:31.052Z,10.97
2023-05-07T18:03:00.100Z,11.27
2023-05-07T18:05:28.369Z,12.07
2023-05-07T18:07:56.232Z,11.27
2023-05-07T18:10:25.299Z,11.63
2023-05-07T18:12:53.024Z,11.53
2023-05-07T18:15:20.832Z,12.13
2023-05-07T18:17:48.584Z,12.90
2023-05-07T18:20:16.399Z,11.43
2023-05-07T18:22:44.149Z,11.93
2023-05-07T18:25:11.866Z,12.60
2023-05-07T18:27:41.162Z,13.40
2023-05-07T18:30:10.191Z,12.03
2023-05-07T18:32:38.069Z,12.70
2023-05-07T18:35:06.651Z,12.57
2023-05-07T18:37:34.617Z,12.93
2023-05-07T18:40:04.074Z,11.90
2023-05-07T18:42:34.035Z,12.83
2023-05-07T18:45:06.107Z,13.03
2023-05-07T18:47:33.874Z,13.00
2023-05-07T18:50:01.798Z,13.80
2023-05-07T18:52:30.497Z,13.20
2023-05-07T18:54:58.271Z,13.33
2023-05-07T18:57:27.635Z,12.40
2023-05-07T18:59:55.626Z,12.90
2023-05-07T19:02:24.796Z,13.33
2023-05-07T19:04:52.484Z,13.40
2023-05-07T19:07:20.201Z,13.23
2023-05-07T19:10:01.049Z,12.83
2023-05-07T19:12:31.666Z,11.93
2023-05-07T19:14:59.396Z,12.93
2023-05-07T19:17:28.494Z,12.30
2023-05-07T19:19:56.324Z,12.50
2023-05-07T19:22:24.010Z,12.60
2023-05-07T19:24:52.158Z,12.40
2023-05-07T19:27:19.903Z,13.00
2023-05-07T19:29:47.584Z,13.03
2023-05-07T19:32:15.351Z,12.63
2023-05-07T19:34:44.375Z,12.27
2023-05-07T19:37:12.083Z,12.23
2023-05-07T19:39:40.482Z,11.93
2023-05-07T19:42:08.210Z,12.60
2023-05-07T19:44:35.881Z,12.70
2023-05-07T19:47:05.716Z,12.13
2023-05-07T19:49:33.542Z,11.33
2023-05-07T19:52:02.653Z,12.97
2023-05-07T19:54:30.800Z,12.80
2023-05-07T19:56:58.652Z,12.80
2023-05-07T19:59:27.167Z,12.87
2023-05-07T20:01:55.138Z,13.10
2023-05-07T20:04:25.360Z,12.90
2023-05-07T20:06:53.089Z,12.03
2023-05-07T20:09:22.111Z,13.90
2023-05-07T20:11:49.838Z,12.50
2023-05-07T20:14:17.958Z,13.63
2023-05-07T20:16:46.005Z,13.13
2023-05-07T20:19:13.733Z,13.53
2023-05-07T20:21:41.567Z,12.90
2023-05-07T20:24:09.645Z,13.43
2023-05-07T20:26:38.707Z,12.77
2023-05-07T20:29:06.966Z,13.80
2023-05-07T20:31:35.405Z,12.97
2023-05-07T20:34:03.366Z,13.80
2023-05-07T20:36:31.065Z,13.67
2023-05-07T20:38:58.725Z,13.67
2023-05-07T20:41:26.823Z,14.77
2023-05-07T20:43:57.063Z,13.30
2023-05-07T20:46:25.584Z,14.73
2023-05-07T20:48:53.280Z,14.67
2023-05-07T20:51:20.942Z,14.37
2023-05-07T20:53:48.575Z,14.30
2023-05-07T20:56:16.391Z,14.73
2023-05-07T20:58:44.095Z,14.27
2023-05-07T21:01:13.339Z,14.53
2023-05-07T21:03:41.299Z,14.23
2023-05-07T21:06:08.940Z,14.17
2023-05-07T21:08:36.591Z,14.70
2023-05-07T21:11:05.750Z,14.37
2023-05-07T21:13:33.395Z,14.97
2023-05-07T21:16:01.151Z,14.87
2023-05-07T21:18:30.875Z,14.90
2023-05-07T21:20:58.579Z,14.57
2023-05-07T21:23:26.310Z,14.33
2023-05-07T21:25:54.025Z,14.60
2023-05-07T21:28:21.664Z,15.43
2023-05-07T21:30:49.361Z,16.10
2023-05-07T21:33:17.066Z,14.20
2023-05-07T21:35:46.087Z,14.83
2023-05-07T21:38:14.070Z,13.87
2023-05-07T21:40:41.844Z,13.73
2023-05-07T21:43:09.522Z,13.67
2023-05-07T21:45:37.242Z,14.10
2023-05-07T21:48:05.397Z,14.00
2023-05-07T21:50:33.168Z,14.70
2023-05-07T21:53:02.241Z,15.23
2023-05-07T21:55:30.078Z,15.03
2023-05-07T21:58:05.542Z,13.07
2023-05-07T22:00:34.167Z,13.73
2023-05-07T22:03:01.939Z,14.47
2023-05-07T22:05:29.714Z,14.97
2023-05-07T22:07:57.355Z,13.97
2023-05-07T22:10:26.442Z,15.27
2023-05-07T22:12:54.203Z,15.00
2023-05-07T22:15:21.997Z,15.27
2023-05-07T22:17:49.669Z,14.13
2023-05-07T22:20:17.637Z,14.57
2023-05-07T22:22:51.114Z,15.90
2023-05-07T22:25:20.435Z,14.97
2023-05-07T22:27:49.819Z,13.90
2023-05-07T22:30:17.723Z,14.57
2023-05-07T22:32:46.500Z,13.40
2023-05-07T22:35:15.063Z,14.67
2023-05-07T22:37:42.756Z,14.07
2023-05-07T22:40:11.454Z,14.23
2023-05-07T22:42:39.407Z,14.90
2023-05-07T22:45:09.670Z,14.43
2023-05-07T22:47:37.350Z,13.87
2023-05-07T22:50:06.489Z,14.73
2023-05-07T22:52:34.587Z,13.03
2023-05-07T22:55:02.525Z,14.03
2023-05-07T22:57:30.445Z,14.23
2023-05-07T22:59:58.428Z,14.20
2023-05-07T23:02:29.180Z,14.43
2023-05-07T23:04:59.680Z,14.53
2023-05-07T23:07:27.398Z,14.10
2023-05-07T23:09:55.061Z,14.97
2023-05-07T23:12:22.792Z,14.77
2023-05-07T23:14:50.889Z,14.40
2023-05-07T23:17:18.533Z,14.03
2023-05-07T23:19:47.803Z,14.83
2023-05-07T23:22:15.932Z,14.90
2023-05-07T23:24:43.783Z,14.47
2023-05-07T23:27:11.561Z,14.80
2023-05-07T23:29:39.312Z,14.90
2023-05-07T23:32:07.058Z,14.33
2023-05-07T23:34:34.720Z,15.93
2023-05-07T23:37:03.844Z,15.80
2023-05-07T23:39:31.578Z,15.43
2023-05-07T23:41:59.245Z,14.93
2023-05-07T23:44:26.938Z,15.03
2023-05-07T23:46:54.712Z,15.80
2023-05-07T23:49:22.382Z,16.43
2023-05-07T23:51:50.035Z,14.67
2023-05-07T23:54:19.567Z,15.40
2023-05-07T23:56:47.261Z,16.57
2023-05-07T23:59:14.972Z,16.23
